Terminal Aerodrome Forecast
Issued by NWS

Home | Current Version | Previous Version | Text Only | Print | Product List | Glossary On
Versions: 1 2 3 4 5 6 7 8 9 10 11 12 13 14 15
000
FTUS43 KDVN 091700
TAFBRL
TAF
KBRL 091720Z 0918/1018 33010KT P6SM SCT050
     FM100200 VRB03KT P6SM SKC
     FM101500 16006KT P6SM SCT030=

USA.gov is the U.S. government's official web portal to all federal, state and local government web resources and services.